createdAt,value
2023-07-27T00:00:31.591Z,96456.63
2023-07-27T00:02:59.578Z,96456.75
2023-07-27T00:05:27.574Z,96457.72
2023-07-27T00:07:56.728Z,96464.50
2023-07-27T00:10:25.359Z,96458.53
2023-07-27T00:12:53.536Z,96465.47
2023-07-27T00:15:21.403Z,96461.13
2023-07-27T00:17:49.275Z,96468.88
2023-07-27T00:20:17.275Z,96457.84
2023-07-27T00:22:45.285Z,96461.41
2023-07-27T00:25:14.554Z,96456.38
2023-07-27T00:27:42.393Z,96453.00
2023-07-27T00:30:10.748Z,96455.59
2023-07-27T00:32:38.570Z,96455.59
2023-07-27T00:35:07.881Z,96462.63
2023-07-27T00:37:35.706Z,96455.84
2023-07-27T00:40:03.628Z,96451.66
2023-07-27T00:42:32.837Z,96450.84
2023-07-27T00:45:00.768Z,96450.19
2023-07-27T00:47:28.702Z,96451.97
2023-07-27T00:49:56.623Z,96447.75
2023-07-27T00:52:25.744Z,96452.91
2023-07-27T00:54:57.941Z,96452.91
2023-07-27T00:57:26.396Z,96453.75
2023-07-27T00:59:55.654Z,96462.28
2023-07-27T01:02:23.552Z,96463.91
2023-07-27T01:04:51.420Z,96473.28
2023-07-27T01:07:19.225Z,96481.84
2023-07-27T01:09:47.772Z,96486.03
2023-07-27T01:12:22.434Z,96490.22
2023-07-27T01:15:00.245Z,96495.41
2023-07-27T01:17:34.895Z,96498.94
2023-07-27T01:20:15.457Z,96499.75
2023-07-27T01:23:19.297Z,96511.69
2023-07-27T01:26:04.177Z,96512.50
2023-07-27T01:28:49.568Z,96509.13
2023-07-27T01:31:22.712Z,96511.69
2023-07-27T01:33:56.194Z,96513.47
2023-07-27T01:36:28.126Z,96510.22
2023-07-27T01:39:00.669Z,96513.63
2023-07-27T01:41:29.297Z,96515.41
2023-07-27T01:43:58.496Z,96517.81
2023-07-27T01:46:31.169Z,96532.34
2023-07-27T01:49:01.994Z,96544.16
2023-07-27T01:51:31.953Z,96544.16
2023-07-27T01:54:00.384Z,96545.13
2023-07-27T01:56:30.750Z,96559.66
2023-07-27T01:58:59.933Z,96554.50
2023-07-27T02:01:30.651Z,96553.69
2023-07-27T02:03:59.002Z,96548.66
2023-07-27T02:06:27.304Z,96556.41
2023-07-27T02:08:55.167Z,96561.44
2023-07-27T02:11:25.117Z,96572.41
2023-07-27T02:13:59.459Z,96579.19
2023-07-27T02:16:34.126Z,96584.25
2023-07-27T02:19:04.027Z,96597.97
2023-07-27T02:21:34.070Z,96599.59
2023-07-27T02:24:02.223Z,96608.81
2023-07-27T02:26:30.804Z,96622.25
2023-07-27T02:29:00.051Z,96645.22
2023-07-27T02:31:29.882Z,96652.81
2023-07-27T02:33:57.802Z,96667.19
2023-07-27T02:36:26.398Z,96674.66
2023-07-27T02:38:54.377Z,96690.00
2023-07-27T02:41:23.387Z,96696.81
2023-07-27T02:43:53.391Z,96697.47
2023-07-27T02:46:24.463Z,96717.97
2023-07-27T02:48:54.692Z,96726.41
2023-07-27T02:51:22.817Z,96730.63
2023-07-27T02:53:50.954Z,96743.38
2023-07-27T02:56:26.515Z,96738.06
2023-07-27T02:58:54.454Z,96749.34
2023-07-27T03:01:23.833Z,96756.16
2023-07-27T03:04:01.603Z,96754.38
2023-07-27T03:06:29.630Z,96763.78
2023-07-27T03:09:00.662Z,96765.53
2023-07-27T03:11:28.852Z,96776.53
2023-07-27T03:13:59.134Z,96770.56
2023-07-27T03:16:27.057Z,96781.56
2023-07-27T03:18:54.868Z,96787.53
2023-07-27T03:21:24.246Z,96796.91
2023-07-27T03:23:52.788Z,96792.72
2023-07-27T03:26:20.759Z,96796.09
2023-07-27T03:28:48.538Z,96801.28
2023-07-27T03:31:18.092Z,96794.47
2023-07-27T03:33:46.117Z,96803.03
2023-07-27T03:36:15.198Z,96809.03
2023-07-27T03:38:45.756Z,96810.63
2023-07-27T03:41:13.806Z,96818.25
2023-07-27T03:43:41.941Z,96820.00
2023-07-27T03:46:10.214Z,96820.81
2023-07-27T03:48:38.217Z,96822.47
2023-07-27T03:51:06.132Z,96832.66
2023-07-27T03:53:34.015Z,96844.63
2023-07-27T03:56:03.321Z,96854.81
2023-07-27T03:58:31.483Z,96860.63
2023-07-27T04:00:59.714Z,96869.09
2023-07-27T04:03:27.748Z,96882.66
2023-07-27T04:05:55.828Z,96886.72
2023-07-27T04:08:23.705Z,96899.53
2023-07-27T04:10:51.521Z,96909.72
2023-07-27T04:13:20.686Z,96920.72
2023-07-27T04:15:48.478Z,96929.97
2023-07-27T04:18:16.363Z,96938.41
2023-07-27T04:20:44.304Z,96940.03
2023-07-27T04:23:12.126Z,96954.56
2023-07-27T04:25:39.968Z,96963.00
2023-07-27T04:28:08.189Z,96976.47
2023-07-27T04:30:37.381Z,96998.63
2023-07-27T04:33:05.304Z,97010.34
2023-07-27T04:35:33.160Z,97025.56
2023-07-27T04:38:00.999Z,97034.13
2023-07-27T04:40:28.960Z,97047.59
2023-07-27T04:42:56.752Z,97053.44
2023-07-27T04:45:24.677Z,97061.88
2023-07-27T04:47:53.873Z,97076.28
2023-07-27T04:50:21.732Z,97082.97
2023-07-27T04:52:49.558Z,97108.53
2023-07-27T04:55:17.529Z,97112.47
2023-07-27T04:57:45.449Z,97138.88
2023-07-27T05:00:14.809Z,97149.75
2023-07-27T05:02:43.055Z,97156.28
2023-07-27T05:05:12.385Z,97185.28
2023-07-27T05:07:40.254Z,97207.31
2023-07-27T05:10:08.563Z,97229.38
2023-07-27T05:12:36.409Z,97242.72
2023-07-27T05:15:04.376Z,97261.38
2023-07-27T05:17:32.398Z,97281.66
2023-07-27T05:20:00.288Z,97291.63
2023-07-27T05:22:29.607Z,97307.00
2023-07-27T05:24:57.476Z,97317.09
2023-07-27T05:27:25.370Z,97337.41
2023-07-27T05:29:53.301Z,97359.47
2023-07-27T05:32:21.118Z,97375.56
2023-07-27T05:34:48.947Z,97390.81
2023-07-27T05:37:16.785Z,97402.53
2023-07-27T05:39:45.965Z,97429.63
2023-07-27T05:42:13.816Z,97443.13
2023-07-27T05:44:41.689Z,97466.84
2023-07-27T05:47:09.629Z,97482.94
2023-07-27T05:49:37.461Z,97498.34
2023-07-27T05:52:05.728Z,97510.88
2023-07-27T05:54:33.746Z,97516.75
2023-07-27T05:57:02.956Z,97532.00
2023-07-27T05:59:30.767Z,97543.06
2023-07-27T06:01:58.556Z,97558.47
2023-07-27T06:04:28.625Z,97561.75
2023-07-27T06:06:57.076Z,97567.63
2023-07-27T06:09:24.900Z,97579.47
2023-07-27T06:11:53.197Z,97591.34
2023-07-27T06:14:22.347Z,97599.81
2023-07-27T06:16:50.191Z,97612.63
2023-07-27T06:19:18.044Z,97606.63
2023-07-27T06:21:45.968Z,97601.56
2023-07-27T06:24:13.860Z,97600.06
2023-07-27T06:26:41.725Z,97588.22
2023-07-27T06:29:09.529Z,97583.84
2023-07-27T06:31:38.882Z,97582.22
2023-07-27T06:34:07.072Z,97582.31
2023-07-27T06:36:35.418Z,97582.31
2023-07-27T06:39:03.505Z,97574.84
2023-07-27T06:41:31.372Z,97576.59
2023-07-27T06:44:01.205Z,97586.81
2023-07-27T06:46:29.129Z,97590.09
2023-07-27T06:48:58.456Z,97597.75
2023-07-27T06:51:26.376Z,97615.47
2023-07-27T06:53:54.151Z,97633.38
2023-07-27T06:56:21.960Z,97640.84
2023-07-27T06:58:49.797Z,97656.16
2023-07-27T07:01:17.664Z,97662.16
2023-07-27T07:03:45.614Z,97662.97
2023-07-27T07:06:14.880Z,97680.00
2023-07-27T07:08:42.754Z,97688.47
2023-07-27T07:11:10.842Z,97696.94
2023-07-27T07:13:38.677Z,97701.31
2023-07-27T07:16:07.464Z,97703.78
2023-07-27T07:18:35.351Z,97711.41
2023-07-27T07:21:03.190Z,97717.41
2023-07-27T07:23:32.406Z,97731.19
2023-07-27T07:26:00.482Z,97729.41
2023-07-27T07:28:27.261Z,97727.78
2023-07-27T07:30:55.252Z,97728.59
2023-07-27T07:33:23.781Z,97744.00
2023-07-27T07:35:51.632Z,97760.13
2023-07-27T07:38:19.998Z,97780.34
2023-07-27T07:40:49.190Z,97802.59
2023-07-27T07:43:16.977Z,97810.22
2023-07-27T07:45:44.798Z,97819.41
2023-07-27T07:48:12.692Z,97837.28
2023-07-27T07:50:40.567Z,97844.91
2023-07-27T07:53:10.360Z,97860.09
2023-07-27T07:55:42.165Z,97888.22
2023-07-27T07:58:11.387Z,97919.66
2023-07-27T08:00:39.290Z,97941.66
2023-07-27T08:03:07.389Z,97957.81
2023-07-27T08:05:35.850Z,97973.91
2023-07-27T08:08:03.866Z,97998.66
2023-07-27T08:10:31.674Z,98018.09
2023-07-27T08:12:59.650Z,98041.03
2023-07-27T08:15:29.052Z,98058.97
2023-07-27T08:17:56.960Z,98070.56
2023-07-27T08:20:24.864Z,98096.16
2023-07-27T08:22:53.036Z,98101.19
2023-07-27T08:25:22.382Z,98109.81
2023-07-27T08:27:51.676Z,98112.41
2023-07-27T08:30:19.824Z,98101.47
2023-07-27T08:32:49.694Z,98088.75
2023-07-27T08:35:17.723Z,98055.66
2023-07-27T08:37:45.663Z,98031.97
2023-07-27T08:40:14.500Z,98016.81
2023-07-27T08:42:44.748Z,98013.50
2023-07-27T08:45:16.191Z,97997.53
2023-07-27T08:47:44.220Z,97975.38
2023-07-27T08:50:15.425Z,97949.97
2023-07-27T08:52:43.417Z,97936.41
2023-07-27T08:55:12.024Z,97945.00
2023-07-27T08:57:40.141Z,97945.00
2023-07-27T09:00:10.857Z,97943.38
2023-07-27T09:02:40.113Z,97964.59
2023-07-27T09:05:10.343Z,97976.63
2023-07-27T09:07:39.601Z,97982.50
2023-07-27T09:10:09.063Z,97972.38
2023-07-27T09:12:37.963Z,97965.63
2023-07-27T09:15:13.060Z,97965.63
2023-07-27T09:17:41.528Z,97952.13
2023-07-27T09:20:12.002Z,97955.66
2023-07-27T09:22:41.250Z,97945.28
2023-07-27T09:25:09.564Z,97948.81
2023-07-27T09:27:44.575Z,97954.84
2023-07-27T09:30:14.600Z,97951.41
2023-07-27T09:32:42.493Z,97965.22
2023-07-27T09:35:15.087Z,97960.84
2023-07-27T09:37:47.124Z,97961.66
2023-07-27T09:40:17.344Z,97970.28
2023-07-27T09:42:46.401Z,97976.28
2023-07-27T09:45:15.466Z,97984.88
2023-07-27T09:47:44.165Z,97980.66
2023-07-27T09:50:12.419Z,97980.66
2023-07-27T09:52:41.460Z,97986.66
2023-07-27T09:55:10.969Z,97993.47
2023-07-27T09:57:39.616Z,97997.72
2023-07-27T10:00:09.634Z,98008.81
2023-07-27T10:02:46.169Z,98038.47
2023-07-27T10:05:14.249Z,98062.25
2023-07-27T10:07:53.735Z,98081.81
2023-07-27T10:10:37.748Z,98080.97
2023-07-27T10:13:12.978Z,98104.91
2023-07-27T10:15:43.341Z,98138.00
2023-07-27T10:18:14.933Z,98153.31
2023-07-27T10:20:43.902Z,98153.31
2023-07-27T10:23:18.217Z,98161.00
2023-07-27T10:26:06.319Z,98167.00
2023-07-27T10:28:38.787Z,98186.53
2023-07-27T10:31:24.559Z,98191.72
2023-07-27T10:34:07.518Z,98195.06
2023-07-27T10:36:59.044Z,98198.47
2023-07-27T10:39:32.081Z,98202.84
2023-07-27T10:42:04.125Z,98195.97
2023-07-27T10:44:42.565Z,98211.44
2023-07-27T10:47:11.854Z,98218.28
2023-07-27T10:49:40.840Z,98227.72
2023-07-27T10:52:08.948Z,98234.41
2023-07-27T10:54:41.554Z,98247.16
2023-07-27T10:57:12.528Z,98256.59
2023-07-27T10:59:42.200Z,98262.59
2023-07-27T11:02:17.213Z,98274.63
2023-07-27T11:04:45.490Z,98286.66
2023-07-27T11:07:13.573Z,98305.28
2023-07-27T11:09:46.798Z,98311.28
2023-07-27T11:12:15.995Z,98324.00
2023-07-27T11:14:43.834Z,98340.06
2023-07-27T11:17:13.230Z,98357.97
2023-07-27T11:19:41.456Z,98361.28
2023-07-27T11:22:12.232Z,98366.47
2023-07-27T11:24:41.698Z,98375.91
2023-07-27T11:27:11.468Z,98397.16
2023-07-27T11:29:41.772Z,98426.97
2023-07-27T11:32:10.224Z,98447.53
2023-07-27T11:34:38.457Z,98473.94
2023-07-27T11:37:06.959Z,98485.75
2023-07-27T11:39:35.847Z,98490.00
2023-07-27T11:42:10.829Z,98506.19
2023-07-27T11:44:39.472Z,98507.00
2023-07-27T11:47:09.098Z,98519.03
2023-07-27T11:49:38.700Z,98515.63
2023-07-27T11:52:09.360Z,98525.06
2023-07-27T11:54:41.905Z,98520.94
2023-07-27T11:57:11.178Z,98516.56
2023-07-27T11:59:39.126Z,98525.06
2023-07-27T12:02:08.543Z,98522.59
2023-07-27T12:04:36.590Z,98522.59
2023-07-27T12:07:05.077Z,98540.53
2023-07-27T12:09:39.211Z,98533.56
2023-07-27T12:12:10.109Z,98555.84
2023-07-27T12:14:44.116Z,98570.28
2023-07-27T12:20:07.094Z,98600.16
2023-07-27T12:22:34.854Z,98604.41
2023-07-27T12:27:34.729Z,98628.38
2023-07-27T12:30:21.111Z,98631.59
2023-07-27T12:32:52.362Z,98645.41
2023-07-27T12:37:51.019Z,98670.09
2023-07-27T12:40:19.579Z,98671.06
2023-07-27T12:42:48.145Z,98687.34
2023-07-27T12:45:15.917Z,98682.97
2023-07-27T12:47:45.072Z,98706.00
2023-07-27T12:50:15.181Z,98728.09
2023-07-27T12:52:43.767Z,98747.72
2023-07-27T12:55:14.126Z,98762.13
2023-07-27T12:57:42.227Z,98774.91
2023-07-27T13:00:12.483Z,98788.72
2023-07-27T13:02:40.367Z,98813.44
2023-07-27T13:05:13.405Z,98809.06
2023-07-27T13:07:44.202Z,98852.56
2023-07-27T13:10:12.579Z,98871.25
2023-07-27T13:12:40.900Z,98881.41
2023-07-27T13:15:09.599Z,98867.91
2023-07-27T13:17:38.024Z,98885.78
2023-07-27T13:20:07.729Z,98899.38
2023-07-27T13:22:35.679Z,98924.22
2023-07-27T13:25:05.438Z,98933.53
2023-07-27T13:27:33.706Z,98959.09
2023-07-27T13:30:04.441Z,98985.59
2023-07-27T13:32:32.869Z,99023.94
2023-07-27T13:35:01.951Z,99041.81
2023-07-27T13:37:30.675Z,99097.31
2023-07-27T13:39:58.795Z,99178.22
2023-07-27T13:42:28.054Z,99249.19
2023-07-27T13:44:55.882Z,99313.28
2023-07-27T13:47:23.725Z,99420.00
2023-07-27T13:49:51.668Z,99443.94
2023-07-27T13:52:21.543Z,99475.59
2023-07-27T13:54:49.514Z,99479.03
2023-07-27T13:57:17.355Z,99435.28
2023-07-27T13:59:46.579Z,99397.13
2023-07-27T14:02:14.366Z,99372.44
2023-07-27T14:04:42.241Z,99348.38
2023-07-27T14:07:10.609Z,99360.34
2023-07-27T14:09:39.234Z,99333.81
2023-07-27T14:12:08.246Z,99361.28
2023-07-27T14:14:36.147Z,99395.41
2023-07-27T14:17:05.682Z,99394.50
2023-07-27T14:19:33.622Z,99427.81
2023-07-27T14:22:01.413Z,99461.97
2023-07-27T14:24:29.292Z,99475.03
2023-07-27T14:26:57.093Z,99500.53
2023-07-27T14:29:26.308Z,99511.53
2023-07-27T14:31:54.285Z,99528.66
2023-07-27T14:34:23.559Z,99523.44
2023-07-27T14:36:51.356Z,99527.81
2023-07-27T14:39:19.389Z,99568.91
2023-07-27T14:41:47.241Z,99609.97
2023-07-27T14:44:15.143Z,99655.31
2023-07-27T14:46:42.932Z,99684.44
2023-07-27T14:49:10.763Z,99734.06
2023-07-27T14:51:39.995Z,99788.00
2023-07-27T14:54:09.952Z,99831.72
2023-07-27T14:56:37.985Z,99887.34
2023-07-27T14:59:08.901Z,99955.00
2023-07-27T15:01:50.800Z,99972.13
2023-07-27T15:06:51.412Z,100002.13
2023-07-27T15:09:19.422Z,100037.13
2023-07-27T15:11:47.252Z,100011.53
2023-07-27T15:14:15.077Z,100025.22
2023-07-27T15:16:43.463Z,100045.69
2023-07-27T15:19:11.425Z,100072.25
2023-07-27T15:21:39.344Z,100109.13
2023-07-27T15:24:09.122Z,100117.69
2023-07-27T15:26:39.200Z,100134.84
2023-07-27T15:29:07.390Z,100181.06
2023-07-27T15:31:35.201Z,100225.69
2023-07-27T15:34:03.119Z,100278.97
2023-07-27T15:36:30.954Z,100299.44
2023-07-27T15:38:58.934Z,100294.31
2023-07-27T15:41:28.068Z,100255.72
2023-07-27T15:43:56.294Z,100210.25
2023-07-27T15:46:24.296Z,100169.84
2023-07-27T15:48:52.161Z,100138.06
2023-07-27T15:51:21.513Z,100115.72
2023-07-27T15:53:49.573Z,100096.88
2023-07-27T15:56:17.529Z,100079.78
2023-07-27T15:58:46.721Z,100029.91
2023-07-27T16:01:14.892Z,100019.56
2023-07-27T16:03:42.970Z,100004.19
2023-07-27T16:06:10.796Z,99987.81
2023-07-27T16:08:38.652Z,99992.09
2023-07-27T16:11:10.723Z,100013.50
2023-07-27T16:13:38.580Z,100023.84
2023-07-27T16:16:08.131Z,100008.28
2023-07-27T16:18:37.000Z,100010.88
2023-07-27T16:21:05.277Z,100016.13
2023-07-27T16:23:34.554Z,99995.31
2023-07-27T16:26:06.099Z,99977.34
2023-07-27T16:28:34.383Z,99962.72
2023-07-27T16:31:02.540Z,99951.56
2023-07-27T16:33:31.786Z,99945.72
2023-07-27T16:35:59.820Z,99925.03
2023-07-27T16:38:27.677Z,99924.94
2023-07-27T16:40:55.505Z,99930.16
2023-07-27T16:43:23.338Z,99932.53
2023-07-27T16:45:51.129Z,99935.97
2023-07-27T16:48:19.009Z,99912.03
2023-07-27T16:50:48.148Z,99911.19
2023-07-27T16:53:15.993Z,99882.81
2023-07-27T16:55:43.771Z,99860.47
2023-07-27T16:58:11.642Z,99835.72
2023-07-27T17:00:39.444Z,99802.31
2023-07-27T17:03:07.467Z,99792.00
2023-07-27T17:05:39.757Z,99785.13
2023-07-27T17:08:11.174Z,99745.69
2023-07-27T17:10:39.103Z,99711.47
2023-07-27T17:13:06.932Z,99675.47
2023-07-27T17:15:34.908Z,99632.59
2023-07-27T17:18:02.811Z,99604.38
2023-07-27T17:20:30.791Z,99596.75
2023-07-27T17:22:58.606Z,99565.78
2023-07-27T17:25:27.855Z,99547.03
2023-07-27T17:27:55.771Z,99538.56
2023-07-27T17:30:23.692Z,99518.91
2023-07-27T17:32:51.537Z,99500.00
2023-07-27T17:35:19.439Z,99479.50
2023-07-27T17:37:47.261Z,99468.44
2023-07-27T17:40:15.196Z,99446.16
2023-07-27T17:42:44.465Z,99435.91
2023-07-27T17:45:12.330Z,99435.09
2023-07-27T17:47:40.169Z,99433.31
2023-07-27T17:50:09.280Z,99421.34
2023-07-27T17:52:37.277Z,99413.66
2023-07-27T17:55:08.347Z,99415.50
2023-07-27T17:57:36.253Z,99402.59
2023-07-27T18:00:07.094Z,99398.34
2023-07-27T18:02:39.723Z,99404.38
2023-07-27T18:05:07.909Z,99404.38
2023-07-27T18:07:36.007Z,99401.06
2023-07-27T18:10:04.427Z,99401.88
2023-07-27T18:12:32.301Z,99400.22
2023-07-27T18:15:01.474Z,99392.53
2023-07-27T18:17:33.731Z,99380.53
2023-07-27T18:20:02.209Z,99379.72
2023-07-27T18:22:31.258Z,99379.00
2023-07-27T18:25:00.433Z,99366.91
2023-07-27T18:27:28.422Z,99362.66
2023-07-27T18:29:56.276Z,99361.09
2023-07-27T18:32:24.113Z,99360.25
2023-07-27T18:34:55.528Z,99355.03
2023-07-27T18:37:23.608Z,99344.84
2023-07-27T18:39:51.405Z,99337.16
2023-07-27T18:42:19.395Z,99332.16
2023-07-27T18:44:47.193Z,99315.81
2023-07-27T18:47:15.052Z,99309.88
2023-07-27T18:49:42.902Z,99302.16
2023-07-27T18:52:12.148Z,99300.50
2023-07-27T18:54:41.467Z,99295.41
2023-07-27T18:57:09.983Z,99301.56
2023-07-27T18:59:37.835Z,99295.41
2023-07-27T19:02:06.495Z,99297.31
2023-07-27T19:04:34.374Z,99297.31
2023-07-27T19:07:02.222Z,99292.09
2023-07-27T19:09:31.457Z,99281.81
2023-07-27T19:11:59.273Z,99279.28
2023-07-27T19:14:27.125Z,99275.84
2023-07-27T19:16:54.953Z,99273.38
2023-07-27T19:19:22.810Z,99268.28
2023-07-27T19:21:50.948Z,99269.94
2023-07-27T19:24:19.561Z,99266.50
2023-07-27T19:26:48.745Z,99264.97
2023-07-27T19:29:18.825Z,99264.13
2023-07-27T19:31:47.737Z,99254.63
2023-07-27T19:34:16.082Z,99261.53
2023-07-27T19:36:43.923Z,99255.59
2023-07-27T19:39:11.792Z,99250.38
2023-07-27T19:41:40.880Z,99246.94
2023-07-27T19:44:10.173Z,99257.38
2023-07-27T19:46:38.624Z,99265.78
2023-07-27T19:49:06.692Z,99266.75
2023-07-27T19:51:34.987Z,99267.56
2023-07-27T19:54:02.783Z,99261.53
2023-07-27T19:56:30.653Z,99267.66
2023-07-27T19:58:58.518Z,99263.41
2023-07-27T20:01:27.720Z,99262.56
2023-07-27T20:03:55.617Z,99265.19
2023-07-27T20:06:23.531Z,99264.22
2023-07-27T20:08:51.392Z,99259.16
2023-07-27T20:11:19.300Z,99253.94
2023-07-27T20:13:47.573Z,99260.91
2023-07-27T20:16:15.626Z,99251.56
2023-07-27T20:18:46.507Z,99243.84
2023-07-27T20:21:15.631Z,99240.41
2023-07-27T20:23:44.456Z,99240.41
2023-07-27T20:26:12.453Z,99234.50
2023-07-27T20:28:40.300Z,99243.25
2023-07-27T20:31:09.582Z,99230.22
2023-07-27T20:33:37.724Z,99237.09
2023-07-27T20:36:07.428Z,99231.06
2023-07-27T20:38:34.356Z,99231.06
2023-07-27T20:41:04.456Z,99231.19
2023-07-27T20:43:32.457Z,99231.19
2023-07-27T20:46:01.064Z,99227.75
2023-07-27T20:48:29.026Z,99231.19
2023-07-27T20:50:56.940Z,99230.34
2023-07-27T20:53:26.076Z,99224.31
2023-07-27T20:55:53.892Z,99217.44
2023-07-27T20:58:21.756Z,99223.50
2023-07-27T21:00:49.637Z,99219.22
2023-07-27T21:03:17.556Z,99226.91
2023-07-27T21:05:45.376Z,99222.66
2023-07-27T21:08:13.203Z,99223.38
2023-07-27T21:10:42.367Z,99236.41
2023-07-27T21:13:10.197Z,99242.44
2023-07-27T21:15:38.010Z,99226.91
2023-07-27T21:18:06.000Z,99220.88
2023-07-27T21:20:34.843Z,99220.88
2023-07-27T21:23:02.801Z,99218.38
2023-07-27T21:25:30.601Z,99218.38
2023-07-27T21:27:59.869Z,99207.25
2023-07-27T21:30:27.843Z,99207.38
2023-07-27T21:32:55.705Z,99201.34
2023-07-27T21:35:23.551Z,99204.06
2023-07-27T21:37:51.341Z,99196.25
2023-07-27T21:40:19.143Z,99187.69
2023-07-27T21:42:46.950Z,99177.41
2023-07-27T21:45:16.525Z,99169.69
2023-07-27T21:47:44.377Z,99175.88
2023-07-27T21:50:12.319Z,99162.97
2023-07-27T21:52:40.183Z,99156.19
2023-07-27T21:55:08.917Z,99155.38
2023-07-27T21:57:36.813Z,99151.94
2023-07-27T22:00:05.421Z,99150.16
2023-07-27T22:06:36.223Z,99139.84
2023-07-27T22:09:04.656Z,99145.06
2023-07-27T22:11:32.487Z,99149.31
2023-07-27T22:14:00.369Z,99150.16
2023-07-27T22:16:28.150Z,99153.59
2023-07-27T22:18:56.539Z,99157.84
2023-07-27T22:21:24.356Z,99163.91
2023-07-27T22:23:53.864Z,99160.44
2023-07-27T22:26:21.692Z,99156.94
2023-07-27T22:28:49.672Z,99163.78
2023-07-27T22:31:17.914Z,99163.91
2023-07-27T22:33:45.779Z,99169.00
2023-07-27T22:36:13.588Z,99163.78
2023-07-27T22:38:41.456Z,99164.75
2023-07-27T22:41:10.626Z,99160.34
2023-07-27T22:43:38.532Z,99160.34
2023-07-27T22:46:06.661Z,99160.44
2023-07-27T22:48:34.553Z,99160.44
2023-07-27T22:51:02.387Z,99159.63
2023-07-27T22:53:30.197Z,99156.09
2023-07-27T22:55:58.031Z,99161.31
2023-07-27T22:58:27.273Z,99169.81
2023-07-27T23:00:55.324Z,99173.25
2023-07-27T23:03:23.228Z,99176.69
2023-07-27T23:05:51.069Z,99173.25
2023-07-27T23:08:20.597Z,99174.09
2023-07-27T23:10:48.690Z,99179.16
2023-07-27T23:13:16.544Z,99181.78
2023-07-27T23:15:45.741Z,99176.56
2023-07-27T23:18:14.636Z,99178.34
2023-07-27T23:20:42.506Z,99182.72
2023-07-27T23:23:10.383Z,99180.94
2023-07-27T23:25:38.237Z,99180.13
2023-07-27T23:28:06.120Z,99174.09
2023-07-27T23:30:34.104Z,99173.13
2023-07-27T23:33:03.334Z,99173.25
2023-07-27T23:35:31.249Z,99161.31
2023-07-27T23:37:59.057Z,99161.31
2023-07-27T23:40:26.886Z,99170.78
2023-07-27T23:42:54.780Z,99167.22
2023-07-27T23:45:22.780Z,99174.09
2023-07-27T23:47:50.670Z,99173.13
2023-07-27T23:50:19.941Z,99180.94
2023-07-27T23:52:47.813Z,99173.13
2023-07-27T23:55:16.166Z,99186.88
2023-07-27T23:57:44.236Z,99181.66
